Time;durP1;ratioP1;P1;durP2;ratioP2;P2;SDS_P1;SDS_P2;PMS_P1;PMS_P2;Temp;Humidity;BMP_temperature;BMP_pressure;BME280_temperature;BME280_humidity;BME280_pressure;Samples;Min_cycle;Max_cycle;Signal;HPM_P1;HPM_P2
2022/06/23 00:02:04;;;;;;;22.45;12.90;;;20.90;99.90;;;;;;4988768;28;20034;-77
2022/06/23 00:04:35;;;;;;;21.88;13.45;;;20.90;99.90;;;;;;5011831;28;20925;-77
2022/06/23 00:07:21;;;;;;;23.10;13.50;;;20.80;99.90;;;;;;5008256;28;20080;-78
2022/06/23 00:09:48;;;;;;;20.38;13.38;;;20.80;99.90;;;;;;5019316;28;20042;-78
2022/06/23 00:12:31;;;;;;;19.88;13.38;;;20.80;99.90;;;;;;5026073;28;20034;-78
2022/06/23 00:15:03;;;;;;;16.83;12.48;;;20.70;99.90;;;;;;5044894;28;20481;-78
2022/06/23 00:17:36;;;;;;;;;;;20.70;99.90;;;;;;5029860;28;20100;-77
2022/06/23 00:20:22;;;;;;;20.88;13.25;;;20.70;99.90;;;;;;5035340;28;20122;-77
2022/06/23 00:22:55;;;;;;;20.38;12.65;;;20.60;99.90;;;;;;5033874;28;20106;-77
2022/06/23 00:25:44;;;;;;;20.98;12.13;;;20.60;99.90;;;;;;5034783;28;20033;-77
2022/06/23 00:28:22;;;;;;;15.85;12.05;;;20.60;99.90;;;;;;5050069;28;20029;-78
2022/06/23 00:30:54;;;;;;;18.73;12.35;;;20.60;99.90;;;;;;5035044;28;20026;-77
2022/06/23 00:33:24;;;;;;;18.55;13.10;;;20.60;99.90;;;;;;5049701;28;20064;-77
2022/06/23 00:35:51;;;;;;;17.67;12.52;;;20.50;99.90;;;;;;5050256;28;20025;-77
2022/06/23 00:38:31;;;;;;;20.80;11.52;;;20.50;99.90;;;;;;5049046;28;20080;-78
2022/06/23 00:40:58;;;;;;;17.20;11.32;;;20.40;99.90;;;;;;5050065;28;20091;-77
2022/06/23 00:43:26;;;;;;;20.83;11.80;;;20.40;99.90;;;;;;5049443;28;20029;-78
2022/06/23 00:46:06;;;;;;;15.40;11.68;;;20.30;99.90;;;;;;5034602;28;20025;-77
2022/06/23 00:48:44;;;;;;;13.57;10.60;;;20.30;99.90;;;;;;5033786;28;20029;-77
2022/06/23 00:51:26;;;;;;;16.55;11.27;;;20.30;99.90;;;;;;5049545;28;20231;-78
2022/06/23 00:54:26;;;;;;;16.77;11.15;;;20.30;99.90;;;;;;5034704;28;20121;-77
2022/06/23 00:57:06;;;;;;;17.25;11.65;;;20.30;99.90;;;;;;5033221;28;20029;-77
2022/06/23 01:00:17;;;;;;;17.52;11.95;;;20.30;99.90;;;;;;5049236;28;20577;-77
2022/06/23 01:02:55;;;;;;;15.68;11.13;;;20.20;99.90;;;;;;5034526;28;20041;-77
2022/06/23 01:05:52;;;;;;;15.65;11.52;;;20.20;99.90;;;;;;5034102;28;20485;-78
2022/06/23 01:08:21;;;;;;;17.02;10.82;;;20.10;99.90;;;;;;5033779;28;20029;-77
2022/06/23 01:10:59;;;;;;;17.13;11.15;;;20.10;99.90;;;;;;5049640;28;20502;-78
2022/06/23 01:13:47;;;;;;;20.40;13.32;;;20.10;99.90;;;;;;5018437;28;20442;-78
2022/06/23 01:16:22;;;;;;;23.23;12.90;;;20.10;99.90;;;;;;5042478;28;20021;-79
2022/06/23 01:19:10;;;;;;;20.45;13.30;;;20.10;99.90;;;;;;5049208;28;20025;-77
2022/06/23 01:21:48;;;;;;;16.90;11.57;;;20.20;99.90;;;;;;5032134;28;20382;-77
2022/06/23 01:24:44;;;;;;;16.52;11.85;;;20.10;99.90;;;;;;5049187;28;20474;-78
2022/06/23 01:27:53;;;;;;;16.38;10.98;;;20.10;99.90;;;;;;5034123;28;20424;-77
2022/06/23 01:30:21;;;;;;;17.70;11.80;;;20.20;99.90;;;;;;5048968;28;20025;-78
2022/06/23 01:33:21;;;;;;;21.58;12.15;;;20.30;99.90;;;;;;5034157;28;20025;-79
2022/06/23 01:36:20;;;;;;;18.40;11.40;;;20.30;99.90;;;;;;5034230;28;20087;-78
2022/06/23 01:39:19;;;;;;;18.55;11.68;;;20.30;99.90;;;;;;5034390;28;20459;-78
2022/06/23 01:41:56;;;;;;;17.10;11.43;;;20.30;99.90;;;;;;5032844;28;20041;-78
2022/06/23 01:45:00;;;;;;;18.95;11.98;;;20.30;99.90;;;;;;5032333;28;20033;-78
2022/06/23 01:47:38;;;;;;;19.38;11.13;;;20.30;99.90;;;;;;5042282;28;20037;-78
2022/06/23 01:50:13;;;;;;;19.25;12.23;;;20.30;99.90;;;;;;5032541;28;20080;-78
2022/06/23 01:52:42;;;;;;;19.05;11.95;;;20.20;99.90;;;;;;5032044;28;20052;-78
2022/06/23 01:55:25;;;;;;;16.70;11.48;;;20.20;99.90;;;;;;5032350;28;20449;-77
2022/06/23 01:58:02;;;;;;;16.55;10.50;;;20.10;99.90;;;;;;5033396;28;20049;-78
2022/06/23 02:00:28;;;;;;;17.48;11.02;;;20.10;99.90;;;;;;5031697;28;20026;-78
2022/06/23 02:03:12;;;;;;;15.45;11.07;;;20.00;99.90;;;;;;5015746;28;20032;-78
2022/06/23 02:06:04;;;;;;;18.45;10.80;;;20.00;99.90;;;;;;5031571;28;20033;-78
2022/06/23 02:08:42;;;;;;;15.50;9.73;;;19.90;99.90;;;;;;5032343;28;20084;-78
2022/06/23 02:11:24;;;;;;;16.67;10.70;;;20.00;99.90;;;;;;5015347;28;20073;-78
2022/06/23 02:13:56;;;;;;;16.52;11.02;;;20.00;99.90;;;;;;5033612;28;20108;-79
2022/06/23 02:16:25;;;;;;;14.73;10.73;;;19.90;99.90;;;;;;5015633;28;20160;-79
2022/06/23 02:19:09;;;;;;;16.63;10.90;;;19.90;99.90;;;;;;5032718;28;20025;-79
2022/06/23 02:21:44;;;;;;;17.45;11.15;;;19.90;99.90;;;;;;5032320;28;20029;-77
2022/06/23 02:24:38;;;;;;;20.27;10.95;;;19.80;99.90;;;;;;5031886;28;20381;-76
2022/06/23 02:27:20;;;;;;;20.25;11.43;;;19.80;99.90;;;;;;5032627;28;20030;-77
2022/06/23 02:29:58;;;;;;;16.35;11.10;;;19.80;99.90;;;;;;5031912;28;20152;-77
2022/06/23 02:33:02;;;;;;;17.50;11.75;;;19.80;99.90;;;;;;5024016;28;20555;-77
2022/06/23 02:35:46;;;;;;;16.27;11.40;;;19.70;99.90;;;;;;5026145;28;20029;-76
2022/06/23 02:38:42;;;;;;;19.67;11.38;;;19.70;99.90;;;;;;5037344;28;20103;-77
2022/06/23 02:41:36;;;;;;;16.08;10.40;;;19.70;99.90;;;;;;5022586;28;20375;-77
2022/06/23 02:44:16;;;;;;;22.35;11.25;;;19.80;99.90;;;;;;5037343;28;20029;-77
2022/06/23 02:46:45;;;;;;;19.60;11.35;;;19.90;99.90;;;;;;5039159;28;20481;-77
2022/06/23 02:49:21;;;;;;;24.98;11.50;;;19.90;99.90;;;;;;5032478;28;20025;-77
2022/06/23 02:52:20;;;;;;;21.35;12.75;;;19.90;99.90;;;;;;5032530;28;20028;-77
2022/06/23 02:54:57;;;;;;;20.42;12.23;;;19.80;99.90;;;;;;5032267;28;20060;-77
2022/06/23 02:57:36;;;;;;;21.40;12.32;;;19.90;99.90;;;;;;5030537;28;20044;-78
2022/06/23 03:00:08;;;;;;;22.02;12.45;;;19.90;99.90;;;;;;5031182;28;20033;-77
2022/06/23 03:02:55;;;;;;;24.65;13.07;;;19.90;99.90;;;;;;5030652;28;20417;-77
2022/06/23 03:05:28;;;;;;;21.02;13.27;;;19.90;99.90;;;;;;5030436;28;20386;-77
2022/06/23 03:08:19;;;;;;;21.05;11.63;;;19.80;99.90;;;;;;5032612;28;20406;-78
2022/06/23 03:14:22;;;;;;;18.40;10.57;;;19.70;99.90;;;;;;5036555;28;20040;-78
2022/06/23 03:16:55;;;;;;;15.73;10.70;;;19.70;99.90;;;;;;5036611;28;20060;-77
2022/06/23 03:19:33;;;;;;;19.90;10.63;;;19.60;99.90;;;;;;5034573;28;20029;-79
2022/06/23 03:22:37;;;;;;;19.65;12.00;;;19.60;99.90;;;;;;5035147;28;20029;-77
2022/06/23 03:25:21;;;;;;;20.77;11.32;;;19.60;99.90;;;;;;5028588;28;20056;-77
2022/06/23 03:28:35;;;;;;;17.95;10.35;;;19.60;99.90;;;;;;5035350;28;20031;-77
2022/06/23 03:31:22;;;;;;;20.85;10.93;;;19.50;99.90;;;;;;5030444;28;20051;-77
2022/06/23 03:33:56;;;;;;;15.82;9.95;;;19.50;99.90;;;;;;5036371;28;20025;-77
2022/06/23 03:36:38;;;;;;;17.73;12.00;;;19.60;99.90;;;;;;5035776;28;20096;-78
2022/06/23 03:42:07;;;;;;;16.05;11.30;;;19.50;99.90;;;;;;5036098;28;20088;-77
2022/06/23 03:44:51;;;;;;;20.15;10.80;;;19.50;99.90;;;;;;5034258;28;20025;-78
2022/06/23 03:47:25;;;;;;;16.40;10.70;;;19.50;99.90;;;;;;5036214;28;20107;-77
2022/06/23 03:50:05;;;;;;;21.13;10.45;;;19.50;99.90;;;;;;5034805;28;20030;-77
2022/06/23 03:53:09;;;;;;;18.52;10.30;;;19.40;99.90;;;;;;5033907;28;20389;-78
2022/06/23 03:55:55;;;;;;;18.98;10.00;;;19.40;99.90;;;;;;5029708;28;20056;-77
2022/06/23 03:58:27;;;;;;;17.25;10.10;;;19.40;99.90;;;;;;5034501;28;20029;-78
2022/06/23 04:01:11;;;;;;;17.65;10.43;;;19.40;99.90;;;;;;5018439;28;20363;-77
2022/06/23 04:03:47;;;;;;;15.30;9.65;;;19.50;99.90;;;;;;5035383;28;20026;-78
2022/06/23 04:06:23;;;;;;;16.35;9.98;;;19.50;99.90;;;;;;5017201;28;20036;-78
2022/06/23 04:08:59;;;;;;;18.98;9.93;;;19.50;99.90;;;;;;5033484;28;20029;-78
2022/06/23 04:12:02;;;;;;;19.13;10.48;;;19.50;99.90;;;;;;5033191;28;20045;-78
2022/06/23 04:14:28;;;;;;;16.77;10.63;;;19.40;99.90;;;;;;5033187;28;20045;-78
2022/06/23 04:17:07;;;;;;;16.63;10.43;;;19.40;99.90;;;;;;5034492;28;20034;-77
2022/06/23 04:19:35;;;;;;;18.25;10.27;;;19.40;99.90;;;;;;5034981;28;20031;-78
2022/06/23 04:22:17;;;;;;;19.65;11.98;;;19.40;99.90;;;;;;5034586;28;20052;-78
2022/06/23 04:24:46;;;;;;;15.80;10.20;;;19.40;99.90;;;;;;5033928;28;20026;-78
2022/06/23 04:27:18;;;;;;;15.98;9.90;;;19.40;99.90;;;;;;5034240;28;20090;-77
2022/06/23 04:29:49;;;;;;;13.70;8.10;;;19.40;99.90;;;;;;5034710;28;20029;-77
2022/06/23 04:32:20;;;;;;;15.47;8.60;;;19.50;99.90;;;;;;5017356;28;20038;-77
2022/06/23 04:35:04;;;;;;;15.73;8.07;;;19.40;99.90;;;;;;5016770;28;20060;-77
2022/06/23 04:38:06;;;;;;;14.95;7.50;;;19.40;99.90;;;;;;5034536;28;20025;-77
2022/06/23 04:40:57;;;;;;;9.88;6.22;;;19.50;99.90;;;;;;5007636;28;20041;-77
2022/06/23 04:43:38;;;;;;;11.68;6.53;;;19.40;99.90;;;;;;5011984;28;20036;-78
2022/06/23 04:46:06;;;;;;;12.90;6.72;;;19.50;99.90;;;;;;5034325;28;20036;-78
2022/06/23 04:48:44;;;;;;;14.60;6.50;;;19.50;99.90;;;;;;5034850;28;20025;-78
2022/06/23 04:51:29;;;;;;;11.80;6.53;;;19.50;99.90;;;;;;5017320;28;20021;-78
2022/06/23 04:54:20;;;;;;;14.52;6.10;;;19.50;99.90;;;;;;5017249;28;20033;-78
2022/06/23 04:57:12;;;;;;;13.25;6.20;;;19.40;99.90;;;;;;5034539;28;20087;-77
2022/06/23 04:59:44;;;;;;;11.93;4.70;;;19.50;99.90;;;;;;5016681;28;20035;-77
2022/06/23 05:02:31;;;;;;;12.05;5.60;;;19.50;99.90;;;;;;5034983;28;20104;-77
2022/06/23 05:05:00;;;;;;;11.73;5.47;;;19.60;99.90;;;;;;5017078;28;20045;-79
2022/06/23 05:07:36;;;;;;;10.65;5.72;;;19.60;99.90;;;;;;5034896;28;20029;-78
2022/06/23 05:10:06;;;;;;;10.65;5.47;;;19.70;99.90;;;;;;5033578;28;20099;-79
2022/06/23 05:12:38;;;;;;;13.40;5.65;;;19.80;99.90;;;;;;5034308;28;20091;-79
2022/06/23 05:15:15;;;;;;;10.93;5.88;;;19.80;99.90;;;;;;5035105;28;20032;-79
2022/06/23 05:17:50;;;;;;;9.02;5.50;;;19.80;99.90;;;;;;5016630;28;20095;-78
2022/06/23 05:20:29;;;;;;;9.40;4.65;;;19.90;99.90;;;;;;5016900;28;20032;-77
2022/06/23 05:22:55;;;;;;;10.43;4.88;;;19.90;99.90;;;;;;5034195;28;20394;-78
2022/06/23 05:25:26;;;;;;;14.57;4.93;;;19.80;99.90;;;;;;5016741;28;20025;-78
2022/06/23 05:27:52;;;;;;;;;;;19.90;99.90;;;;;;5034684;28;20108;-78
2022/06/23 05:30:30;;;;;;;13.70;4.70;;;19.90;99.90;;;;;;5034433;28;19941;-78
2022/06/23 05:33:06;;;;;;;11.63;5.18;;;19.90;99.90;;;;;;5016101;28;20102;-78
2022/06/23 05:35:43;;;;;;;12.38;4.97;;;19.80;99.90;;;;;;5014548;28;20057;-78
2022/06/23 05:38:12;;;;;;;14.45;4.95;;;19.90;99.90;;;;;;5009604;28;20030;-76
2022/06/23 05:40:50;;;;;;;11.60;4.80;;;19.80;99.90;;;;;;4992833;28;20084;-78
2022/06/23 05:43:17;;;;;;;11.52;4.38;;;19.90;99.90;;;;;;5012982;28;20427;-78
2022/06/23 05:45:47;;;;;;;13.88;4.82;;;19.90;99.90;;;;;;5013212;28;20100;-78
2022/06/23 05:48:23;;;;;;;15.93;5.03;;;19.90;99.90;;;;;;5012620;28;20036;-77
2022/06/23 05:51:06;;;;;;;14.20;5.32;;;19.90;99.90;;;;;;5013076;28;20179;-77
2022/06/23 05:53:35;;;;;;;11.98;5.10;;;20.00;99.90;;;;;;5019474;28;20044;-78
2022/06/23 05:56:11;;;;;;;11.73;4.93;;;20.00;99.90;;;;;;5011831;28;20080;-78
2022/06/23 05:59:18;;;;;;;11.48;5.00;;;20.00;99.90;;;;;;5012362;28;20022;-79
2022/06/23 06:02:12;;;;;;;10.00;4.28;;;20.10;99.90;;;;;;4975122;28;20076;-77
2022/06/23 06:04:49;;;;;;;12.40;5.03;;;20.10;99.90;;;;;;5026627;28;20053;-77
2022/06/23 06:07:18;;;;;;;11.35;4.50;;;20.20;99.90;;;;;;5010532;28;20026;-77
2022/06/23 06:09:45;;;;;;;13.52;4.85;;;20.20;99.90;;;;;;5020986;28;20046;-77
2022/06/23 06:12:35;;;;;;;8.55;4.40;;;20.30;99.90;;;;;;5022522;28;20072;-78
2022/06/23 06:15:04;;;;;;;13.18;4.40;;;20.30;99.90;;;;;;5018743;28;20064;-78
2022/06/23 06:17:33;;;;;;;9.07;4.28;;;20.40;99.90;;;;;;5003438;28;20017;-79
2022/06/23 06:20:05;;;;;;;10.70;4.40;;;20.50;99.90;;;;;;5020273;28;20036;-78
2022/06/23 06:22:46;;;;;;;11.95;4.93;;;20.60;99.90;;;;;;4992301;28;20034;-78
2022/06/23 06:25:18;;;;;;;10.88;4.20;;;20.70;99.90;;;;;;5012066;28;20035;-78
2022/06/23 06:27:43;;;;;;;9.45;4.10;;;20.60;99.90;;;;;;5015104;28;20097;-78
2022/06/23 06:30:16;;;;;;;9.05;4.35;;;20.60;99.90;;;;;;5017990;28;20143;-77
2022/06/23 06:32:42;;;;;;;11.70;4.65;;;20.70;99.90;;;;;;5013985;28;20490;-78
2022/06/23 06:35:33;;;;;;;10.18;3.30;;;20.80;99.90;;;;;;5024060;28;20078;-78
2022/06/23 06:38:05;;;;;;;9.40;3.20;;;20.80;99.90;;;;;;5018488;28;20033;-78
2022/06/23 06:40:32;;;;;;;6.22;3.78;;;20.90;99.90;;;;;;5018406;28;20282;-78
2022/06/23 06:43:02;;;;;;;8.23;3.85;;;20.90;99.90;;;;;;5018100;28;20034;-77
2022/06/23 06:45:33;;;;;;;10.43;4.23;;;20.90;99.90;;;;;;5002430;28;20057;-78
2022/06/23 06:47:59;;;;;;;9.82;3.90;;;20.90;99.90;;;;;;5013133;28;20113;-78
2022/06/23 06:50:47;;;;;;;8.48;3.08;;;21.00;99.90;;;;;;5017533;28;20116;-77
2022/06/23 06:53:48;;;;;;;10.85;3.70;;;21.00;99.90;;;;;;5020254;28;20034;-78
2022/06/23 06:56:20;;;;;;;10.35;3.88;;;21.00;99.90;;;;;;4956420;28;20498;-78
2022/06/23 06:59:19;;;;;;;12.23;3.63;;;21.10;99.90;;;;;;5021169;28;20026;-78
2022/06/23 07:01:54;;;;;;;8.50;3.80;;;21.20;99.90;;;;;;5019306;28;20123;-78
2022/06/23 07:04:30;;;;;;;10.10;4.28;;;21.20;99.90;;;;;;5013980;28;20533;-78
2022/06/23 07:07:08;;;;;;;8.25;3.45;;;21.20;99.90;;;;;;5018346;28;20133;-78
2022/06/23 07:09:46;;;;;;;15.48;3.60;;;21.20;99.90;;;;;;5013329;28;20475;-80
2022/06/23 07:12:40;;;;;;;8.23;2.90;;;21.30;99.90;;;;;;5003835;28;20133;-79
2022/06/23 07:15:30;;;;;;;9.35;3.15;;;21.30;99.90;;;;;;5019543;28;20049;-78
2022/06/23 07:18:20;;;;;;;8.10;2.53;;;21.30;99.90;;;;;;5000391;28;20038;-78
2022/06/23 07:21:10;;;;;;;7.07;2.63;;;21.50;99.90;;;;;;5012018;28;20026;-78
2022/06/23 07:24:12;;;;;;;7.07;2.67;;;21.50;99.90;;;;;;5014025;28;20025;-78
2022/06/23 07:26:43;;;;;;;9.60;2.40;;;21.60;99.90;;;;;;5016816;28;20479;-78
2022/06/23 07:29:14;;;;;;;8.82;2.13;;;21.70;99.90;;;;;;5023894;28;20525;-77
2022/06/23 07:31:49;;;;;;;7.07;2.25;;;21.80;99.90;;;;;;5011399;28;20430;-78
2022/06/23 07:34:16;;;;;;;7.47;2.53;;;21.90;99.90;;;;;;5020525;28;20107;-78
2022/06/23 07:37:20;;;;;;;6.07;2.10;;;22.00;99.90;;;;;;5015871;28;20045;-78
2022/06/23 07:39:52;;;;;;;9.40;2.20;;;22.00;99.90;;;;;;5007264;28;20455;-78
2022/06/23 07:42:51;;;;;;;7.68;2.20;;;22.10;99.90;;;;;;5020667;28;20087;-80
2022/06/23 07:45:28;;;;;;;9.80;2.03;;;22.20;99.90;;;;;;4995125;28;20064;-81
2022/06/23 07:47:55;;;;;;;6.00;2.00;;;22.20;99.90;;;;;;5019906;28;20014;-83
2022/06/23 07:50:20;;;;;;;10.07;2.60;;;22.40;99.90;;;;;;5023468;28;20021;-83
2022/06/23 07:52:47;;;;;;;8.43;3.35;;;22.50;99.90;;;;;;5017895;28;20034;-83
2022/06/23 07:55:20;;;;;;;7.97;2.70;;;22.50;99.90;;;;;;5020085;28;20043;-84
2022/06/23 07:57:46;;;;;;;5.85;2.17;;;22.50;99.90;;;;;;5027575;28;20032;-83
2022/06/23 08:00:13;;;;;;;13.45;2.60;;;22.60;99.90;;;;;;5015880;28;20030;-83
2022/06/23 08:03:00;;;;;;;7.85;2.20;;;22.70;99.90;;;;;;5014361;28;20021;-84
2022/06/23 08:05:48;;;;;;;8.63;2.33;;;22.60;99.90;;;;;;5015442;28;20026;-83
2022/06/23 08:08:20;;;;;;;8.57;2.35;;;22.60;99.90;;;;;;5015195;28;20116;-83
2022/06/23 08:10:48;;;;;;;8.55;2.63;;;22.50;99.90;;;;;;5025450;28;20054;-83
2022/06/23 08:13:25;;;;;;;7.78;2.95;;;22.50;99.90;;;;;;5015075;28;20029;-82
2022/06/23 08:19:02;;;;;;;4.35;2.40;;;22.70;99.90;;;;;;5027970;28;20204;-82
2022/06/23 08:21:36;;;;;;;7.78;2.67;;;22.80;99.90;;;;;;5035050;28;20107;-82
2022/06/23 08:24:03;;;;;;;9.57;3.00;;;22.90;99.90;;;;;;5023098;28;20048;-82
2022/06/23 08:26:30;;;;;;;7.78;2.97;;;22.90;99.90;;;;;;5025728;28;20446;-85
2022/06/23 08:29:00;;;;;;;8.63;3.13;;;22.90;99.90;;;;;;5012387;28;20029;-85
2022/06/23 08:31:28;;;;;;;5.85;2.60;;;22.90;99.90;;;;;;5035801;28;20018;-84
2022/06/23 08:33:54;;;;;;;7.20;3.00;;;22.90;99.90;;;;;;5033869;28;20026;-82
2022/06/23 08:36:24;;;;;;;12.95;5.03;;;22.90;99.90;;;;;;5033497;28;20091;-80
2022/06/23 08:39:00;;;;;;;7.80;3.08;;;22.80;99.90;;;;;;5026869;28;20021;-78
2022/06/23 08:41:35;;;;;;;8.90;2.80;;;22.90;99.90;;;;;;5032888;28;20485;-78
2022/06/23 08:44:25;;;;;;;7.97;2.90;;;22.90;99.90;;;;;;5034351;28;20029;-77
2022/06/23 08:47:27;;;;;;;9.65;3.55;;;22.90;99.90;;;;;;5031460;28;20028;-78
2022/06/23 08:49:59;;;;;;;10.23;3.40;;;22.90;99.90;;;;;;5031093;28;20034;-80
2022/06/23 08:52:38;;;;;;;5.85;2.75;;;22.90;99.90;;;;;;5030523;28;20470;-81
2022/06/23 08:55:12;;;;;;;8.27;3.03;;;22.90;99.90;;;;;;5028913;28;20033;-82
2022/06/23 08:57:51;;;;;;;9.93;3.40;;;23.00;99.90;;;;;;5032923;28;20026;-80
2022/06/23 09:00:43;;;;;;;9.57;3.08;;;23.00;99.90;;;;;;5013796;28;20029;-80
2022/06/23 09:03:36;;;;;;;5.70;2.70;;;23.00;99.90;;;;;;5034432;28;20037;-81
2022/06/23 09:06:18;;;;;;;5.03;2.70;;;23.00;99.90;;;;;;5035291;28;20382;-79
2022/06/23 09:08:54;;;;;;;12.52;3.22;;;23.10;99.90;;;;;;5033503;28;20080;-81
2022/06/23 09:11:35;;;;;;;9.68;3.25;;;23.20;99.90;;;;;;5016919;28;20124;-81
2022/06/23 09:14:30;;;;;;;9.67;3.23;;;23.20;99.90;;;;;;5032578;28;20033;-81
2022/06/23 09:17:21;;;;;;;6.72;3.00;;;23.30;99.90;;;;;;5040690;28;20578;-81
2022/06/23 09:20:05;;;;;;;7.45;2.90;;;23.30;99.90;;;;;;5030454;28;20478;-81
2022/06/23 09:22:47;;;;;;;9.55;3.10;;;23.40;99.90;;;;;;5012227;28;20030;-83
2022/06/23 09:25:31;;;;;;;6.57;2.30;;;23.40;99.90;;;;;;5033852;28;20529;-82
2022/06/23 09:27:57;;;;;;;7.75;2.78;;;23.50;99.90;;;;;;5030133;28;20168;-82
2022/06/23 09:30:51;;;;;;;6.63;3.17;;;23.50;99.90;;;;;;5025992;28;20493;-82
2022/06/23 09:33:28;;;;;;;6.93;2.85;;;23.50;99.90;;;;;;5013931;28;20037;-81
2022/06/23 09:36:21;;;;;;;10.00;3.28;;;23.60;99.90;;;;;;5031162;28;20182;-81
2022/06/23 09:39:08;;;;;;;8.93;2.97;;;23.60;99.90;;;;;;5033002;28;20032;-82
2022/06/23 09:41:46;;;;;;;7.05;3.42;;;23.60;99.90;;;;;;5014106;28;20034;-83
2022/06/23 09:44:31;;;;;;;9.02;3.13;;;23.70;99.90;;;;;;5017017;28;20024;-84
2022/06/23 09:47:02;;;;;;;10.45;2.85;;;23.70;99.90;;;;;;5028119;28;20109;-84
2022/06/23 09:49:34;;;;;;;5.20;2.17;;;23.70;99.90;;;;;;5031180;28;20029;-85
2022/06/23 09:52:23;;;;;;;9.65;2.85;;;23.90;99.90;;;;;;5032356;28;20083;-86
2022/06/23 09:55:33;;;;;;;8.43;2.40;;;23.90;99.90;;;;;;5015663;28;20044;-85
2022/06/23 09:58:04;;;;;;;5.18;2.55;;;23.90;99.90;;;;;;5026524;28;20042;-87
2022/06/23 10:00:48;;;;;;;;;;;24.00;99.90;;;;;;5031000;28;20046;-86
2022/06/23 10:03:17;;;;;;;8.68;2.47;;;24.00;99.90;;;;;;5031318;28;19909;-85
2022/06/23 10:05:57;;;;;;;7.03;1.90;;;24.00;99.90;;;;;;5031759;28;20510;-82
2022/06/23 10:08:46;;;;;;;10.13;2.97;;;24.10;99.90;;;;;;5025915;28;20041;-84
2022/06/23 10:11:34;;;;;;;4.65;2.58;;;24.10;99.90;;;;;;4998609;28;20136;-83
2022/06/23 10:14:20;;;;;;;8.68;2.50;;;24.10;99.90;;;;;;5027552;28;20056;-82
2022/06/23 10:17:04;;;;;;;8.30;3.42;;;24.10;99.90;;;;;;5025719;28;20506;-79
2022/06/23 10:19:54;;;;;;;12.57;4.35;;;24.30;99.90;;;;;;5024855;28;20026;-78
2022/06/23 10:22:28;;;;;;;17.75;9.23;;;24.30;99.90;;;;;;5018597;28;20125;-78
2022/06/23 10:25:15;;;;;;;8.63;3.50;;;24.40;99.90;;;;;;5024838;28;20280;-78
2022/06/23 10:28:04;;;;;;;7.68;4.97;;;24.50;99.90;;;;;;5023983;28;20081;-80
2022/06/23 10:30:44;;;;;;;8.18;2.35;;;24.50;99.90;;;;;;5020928;28;20116;-79
2022/06/23 10:33:22;;;;;;;5.27;2.00;;;24.60;99.90;;;;;;5027112;28;20041;-80
2022/06/23 10:36:06;;;;;;;7.43;1.92;;;24.70;99.90;;;;;;5023762;28;20022;-80
2022/06/23 10:38:59;;;;;;;10.82;2.05;;;24.70;99.90;;;;;;5008262;28;20030;-79
2022/06/23 10:41:32;;;;;;;7.78;2.40;;;24.90;99.90;;;;;;5016218;28;20382;-78
2022/06/23 10:44:24;;;;;;;7.85;2.13;;;25.00;99.90;;;;;;5026237;28;20037;-79
2022/06/23 10:47:18;;;;;;;7.07;2.60;;;25.10;99.90;;;;;;4969194;28;20079;-82
2022/06/23 10:49:52;;;;;;;6.18;2.35;;;25.20;99.90;;;;;;5012877;28;20463;-82
2022/06/23 10:52:26;;;;;;;4.93;1.63;;;25.20;99.90;;;;;;5018040;28;20040;-78
2022/06/23 10:55:22;;;;;;;5.50;2.10;;;25.40;99.90;;;;;;5017987;28;20038;-78
2022/06/23 10:58:17;;;;;;;6.53;1.85;;;25.70;99.90;;;;;;5032600;28;20017;-78
2022/06/23 11:01:14;;;;;;;6.28;2.05;;;25.90;99.90;;;;;;5034013;28;20030;-77
2022/06/23 11:04:14;;;;;;;6.07;1.85;;;26.00;99.90;;;;;;5029766;28;20034;-77
2022/06/23 11:07:07;;;;;;;8.77;2.10;;;26.10;99.90;;;;;;5032740;28;20030;-78
2022/06/23 11:10:14;;;;;;;11.18;2.17;;;26.00;99.80;;;;;;5015093;28;20103;-80
2022/06/23 11:13:12;;;;;;;6.20;2.15;;;26.10;99.90;;;;;;5030964;28;20026;-78
2022/06/23 11:16:01;;;;;;;5.65;1.83;;;26.10;98.80;;;;;;5003576;28;20041;-82
2022/06/23 11:18:45;;;;;;;7.22;1.92;;;26.00;99.20;;;;;;5026151;28;20030;-78
2022/06/23 11:21:48;;;;;;;6.13;2.33;;;26.00;99.20;;;;;;5020336;28;20114;-79
2022/06/23 11:25:05;;;;;;;7.75;2.03;;;25.90;98.80;;;;;;5025070;28;20074;-79
2022/06/23 11:27:50;;;;;;;5.97;2.03;;;25.80;99.00;;;;;;4989969;28;20046;-80
2022/06/23 11:30:33;;;;;;;6.65;1.83;;;25.80;99.60;;;;;;5022579;28;20025;-82
2022/06/23 11:33:13;;;;;;;10.77;2.60;;;26.00;99.80;;;;;;5030825;28;20057;-81
2022/06/23 11:35:51;;;;;;;6.45;2.83;;;26.20;99.50;;;;;;5012338;28;20033;-80
2022/06/23 11:38:23;;;;;;;5.53;2.10;;;26.30;99.80;;;;;;5015625;28;20053;-80
2022/06/23 11:41:12;;;;;;;6.13;1.90;;;26.30;99.40;;;;;;5017785;28;20470;-82
2022/06/23 11:43:56;;;;;;;6.93;1.92;;;26.50;99.30;;;;;;5028693;28;20022;-82
2022/06/23 11:47:03;;;;;;;7.15;2.28;;;26.50;98.20;;;;;;5035721;28;20075;-80
2022/06/23 11:49:59;;;;;;;6.30;1.90;;;26.60;98.60;;;;;;4991041;28;20072;-79
2022/06/23 11:53:00;;;;;;;8.93;1.67;;;26.60;98.20;;;;;;5010915;28;20061;-84
2022/06/23 11:55:40;;;;;;;8.35;2.03;;;26.70;97.40;;;;;;5030964;28;20033;-81
2022/06/23 11:58:07;;;;;;;4.60;1.97;;;26.80;97.70;;;;;;5028240;28;20057;-86
2022/06/23 12:00:48;;;;;;;6.50;1.67;;;26.70;97.40;;;;;;5017616;28;20033;-88
2022/06/23 12:03:32;;;;;;;5.25;1.95;;;26.80;97.40;;;;;;5032594;28;20049;-86
2022/06/23 12:06:31;;;;;;;5.78;2.30;;;26.90;96.50;;;;;;5015386;28;20045;-86
2022/06/23 12:09:15;;;;;;;6.57;1.95;;;27.00;96.40;;;;;;5025516;28;20137;-83
2022/06/23 12:11:41;;;;;;;6.18;1.70;;;27.20;95.50;;;;;;5011560;28;20038;-83
2022/06/23 12:14:08;;;;;;;7.40;1.83;;;27.40;95.50;;;;;;5015698;28;20383;-83
2022/06/23 12:16:45;;;;;;;6.88;1.60;;;27.50;94.80;;;;;;5011363;28;20025;-83
2022/06/23 12:19:14;;;;;;;4.60;1.70;;;27.60;94.70;;;;;;4995463;28;20062;-83
2022/06/23 12:22:10;;;;;;;9.32;1.80;;;27.60;93.90;;;;;;5010481;28;20034;-82
2022/06/23 12:24:36;;;;;;;6.70;1.67;;;27.70;93.90;;;;;;5013780;28;20113;-84
2022/06/23 12:27:16;;;;;;;7.07;1.90;;;27.90;93.60;;;;;;5015000;28;20442;-82
2022/06/23 12:30:06;;;;;;;11.82;1.63;;;27.90;93.10;;;;;;4988815;28;20036;-83
2022/06/23 12:32:54;;;;;;;8.85;1.45;;;28.00;92.20;;;;;;5012138;28;20048;-85
2022/06/23 12:35:58;;;;;;;6.75;1.75;;;28.20;91.60;;;;;;5003403;28;20022;-82
2022/06/23 12:38:38;;;;;;;5.90;1.73;;;28.40;91.60;;;;;;4986711;28;20030;-82
2022/06/23 12:41:17;;;;;;;7.67;1.60;;;28.70;91.50;;;;;;5017399;28;20034;-81
2022/06/23 12:43:57;;;;;;;6.68;1.55;;;28.90;91.00;;;;;;5013270;28;20260;-81
2022/06/23 12:46:53;;;;;;;5.10;1.80;;;29.10;90.00;;;;;;5010749;28;20022;-81
2022/06/23 12:49:47;;;;;;;7.25;1.52;;;29.30;89.30;;;;;;5028664;28;20022;-82
2022/06/23 12:52:23;;;;;;;9.45;1.65;;;29.30;88.10;;;;;;5014727;28;20493;-81
2022/06/23 12:54:51;;;;;;;8.43;1.60;;;29.40;88.10;;;;;;5013096;28;20030;-82
2022/06/23 12:57:41;;;;;;;5.47;1.60;;;29.70;85.80;;;;;;4994986;28;20025;-80
2022/06/23 13:00:18;;;;;;;6.30;1.65;;;29.90;84.40;;;;;;5013743;28;20044;-81
2022/06/23 13:02:56;;;;;;;12.55;2.00;;;30.10;82.90;;;;;;4996224;28;20033;-82
2022/06/23 13:05:48;;;;;;;6.00;1.70;;;30.20;80.50;;;;;;5013299;28;20033;-82
2022/06/23 13:08:20;;;;;;;8.50;1.88;;;30.30;80.00;;;;;;5019203;28;20045;-84
2022/06/23 13:10:49;;;;;;;5.60;1.95;;;30.50;79.60;;;;;;5009666;28;20092;-83
2022/06/23 13:13:28;;;;;;;5.90;1.58;;;30.60;77.00;;;;;;5008757;28;20025;-79
2022/06/23 13:16:06;;;;;;;4.75;1.33;;;30.80;78.10;;;;;;5005238;28;20018;-82
2022/06/23 13:18:39;;;;;;;2.80;1.40;;;31.00;76.60;;;;;;4992419;28;20026;-84
2022/06/23 13:21:15;;;;;;;5.45;1.48;;;31.30;76.00;;;;;;5012746;28;20471;-83
2022/06/23 13:23:49;;;;;;;4.43;1.50;;;31.40;73.10;;;;;;5005672;28;20053;-85
2022/06/23 13:26:40;;;;;;;6.07;1.70;;;31.60;72.90;;;;;;5002975;28;20027;-84
2022/06/23 13:29:33;;;;;;;7.18;2.00;;;31.80;73.20;;;;;;5007290;28;20034;-85
2022/06/23 13:32:06;;;;;;;8.98;1.80;;;31.80;71.20;;;;;;4987995;28;20468;-85
2022/06/23 13:34:35;;;;;;;6.35;1.52;;;31.80;70.50;;;;;;4997622;28;20067;-89
2022/06/23 13:37:22;;;;;;;7.97;1.70;;;31.60;70.80;;;;;;5002979;28;20034;-83
2022/06/23 13:40:14;;;;;;;9.15;2.08;;;31.80;69.50;;;;;;4993178;28;20058;-84
2022/06/23 13:42:54;;;;;;;6.00;1.52;;;32.40;68.50;;;;;;5008471;28;20042;-77
2022/06/23 13:45:42;;;;;;;9.57;1.80;;;33.30;66.20;;;;;;5004142;28;20086;-78
2022/06/23 13:48:19;;;;;;;10.40;1.80;;;33.90;65.00;;;;;;5007531;28;20018;-89
2022/06/23 13:51:08;;;;;;;5.90;1.70;;;34.10;63.20;;;;;;5006317;28;20027;-81
2022/06/23 13:53:41;;;;;;;6.68;1.70;;;33.90;61.40;;;;;;5002507;28;20288;-78
2022/06/23 13:56:22;;;;;;;202.88;131.95;;;34.60;60.60;;;;;;5008325;28;20026;-78
2022/06/23 13:59:14;;;;;;;29.73;18.75;;;34.80;60.00;;;;;;5004519;28;20022;-75